sensor_id;sensor_type;location;lat;lon;timestamp;P1;durP1;ratioP1;P2;durP2;ratioP2
15633;SDS011;14654;48.898;8.308;2023-07-08T00:02:09;7.60;;;6.83;;
15633;SDS011;14654;48.898;8.308;2023-07-08T00:04:36;8.43;;;7.63;;
15633;SDS011;14654;48.898;8.308;2023-07-08T00:07:01;8.60;;;7.70;;
15633;SDS011;14654;48.898;8.308;2023-07-08T00:09:27;8.43;;;7.20;;
15633;SDS011;14654;48.898;8.308;2023-07-08T00:11:52;7.07;;;6.37;;
15633;SDS011;14654;48.898;8.308;2023-07-08T00:14:17;9.00;;;6.93;;
15633;SDS011;14654;48.898;8.308;2023-07-08T00:16:42;8.87;;;7.97;;
15633;SDS011;14654;48.898;8.308;2023-07-08T00:19:08;8.43;;;7.43;;
15633;SDS011;14654;48.898;8.308;2023-07-08T00:21:35;9.53;;;7.50;;
15633;SDS011;14654;48.898;8.308;2023-07-08T00:24:00;9.00;;;7.43;;
15633;SDS011;14654;48.898;8.308;2023-07-08T00:26:26;7.90;;;7.10;;
15633;SDS011;14654;48.898;8.308;2023-07-08T00:28:54;8.20;;;7.40;;
15633;SDS011;14654;48.898;8.308;2023-07-08T00:31:21;9.50;;;7.33;;
15633;SDS011;14654;48.898;8.308;2023-07-08T00:33:50;10.30;;;8.10;;
15633;SDS011;14654;48.898;8.308;2023-07-08T00:36:20;6.40;;;5.80;;
15633;SDS011;14654;48.898;8.308;2023-07-08T00:38:46;7.50;;;6.80;;
15633;SDS011;14654;48.898;8.308;2023-07-08T00:41:12;7.30;;;6.60;;
15633;SDS011;14654;48.898;8.308;2023-07-08T00:43:50;7.13;;;6.47;;
15633;SDS011;14654;48.898;8.308;2023-07-08T00:48:50;7.87;;;7.17;;
15633;SDS011;14654;48.898;8.308;2023-07-08T00:51:18;8.57;;;7.67;;
15633;SDS011;14654;48.898;8.308;2023-07-08T00:53:45;8.07;;;7.27;;
15633;SDS011;14654;48.898;8.308;2023-07-08T00:56:17;9.80;;;8.30;;
15633;SDS011;14654;48.898;8.308;2023-07-08T01:01:22;12.20;;;8.07;;
15633;SDS011;14654;48.898;8.308;2023-07-08T01:03:53;8.20;;;7.33;;
15633;SDS011;14654;48.898;8.308;2023-07-08T01:06:21;8.77;;;7.33;;
15633;SDS011;14654;48.898;8.308;2023-07-08T01:08:48;8.27;;;7.47;;
15633;SDS011;14654;48.898;8.308;2023-07-08T01:11:19;8.27;;;7.47;;
15633;SDS011;14654;48.898;8.308;2023-07-08T01:13:46;8.60;;;7.73;;
15633;SDS011;14654;48.898;8.308;2023-07-08T01:16:15;8.10;;;7.40;;
15633;SDS011;14654;48.898;8.308;2023-07-08T01:18:41;8.17;;;6.97;;
15633;SDS011;14654;48.898;8.308;2023-07-08T01:21:27;8.13;;;6.93;;
15633;SDS011;14654;48.898;8.308;2023-07-08T01:23:55;7.37;;;6.67;;
15633;SDS011;14654;48.898;8.308;2023-07-08T01:26:24;7.57;;;6.70;;
15633;SDS011;14654;48.898;8.308;2023-07-08T01:28:51;7.83;;;7.00;;
15633;SDS011;14654;48.898;8.308;2023-07-08T01:31:18;7.70;;;6.93;;
15633;SDS011;14654;48.898;8.308;2023-07-08T01:33:44;7.80;;;7.10;;
15633;SDS011;14654;48.898;8.308;2023-07-08T01:36:10;7.27;;;6.57;;
15633;SDS011;14654;48.898;8.308;2023-07-08T01:38:36;6.73;;;6.13;;
15633;SDS011;14654;48.898;8.308;2023-07-08T01:41:03;7.67;;;6.97;;
15633;SDS011;14654;48.898;8.308;2023-07-08T01:43:28;8.23;;;7.33;;
15633;SDS011;14654;48.898;8.308;2023-07-08T01:45:53;7.97;;;7.17;;
15633;SDS011;14654;48.898;8.308;2023-07-08T01:48:23;8.20;;;7.40;;
15633;SDS011;14654;48.898;8.308;2023-07-08T01:50:54;7.43;;;6.73;;
15633;SDS011;14654;48.898;8.308;2023-07-08T01:53:40;8.73;;;7.83;;
15633;SDS011;14654;48.898;8.308;2023-07-08T01:56:06;9.43;;;8.20;;
15633;SDS011;14654;48.898;8.308;2023-07-08T01:58:33;7.70;;;7.03;;
15633;SDS011;14654;48.898;8.308;2023-07-08T02:00:59;7.40;;;6.63;;
15633;SDS011;14654;48.898;8.308;2023-07-08T02:03:25;7.93;;;7.17;;
15633;SDS011;14654;48.898;8.308;2023-07-08T02:05:51;8.07;;;7.27;;
15633;SDS011;14654;48.898;8.308;2023-07-08T02:08:17;7.50;;;6.83;;
15633;SDS011;14654;48.898;8.308;2023-07-08T02:10:43;7.30;;;6.57;;
15633;SDS011;14654;48.898;8.308;2023-07-08T02:13:10;7.53;;;6.80;;
15633;SDS011;14654;48.898;8.308;2023-07-08T02:15:35;7.87;;;7.10;;
15633;SDS011;14654;48.898;8.308;2023-07-08T02:18:00;8.87;;;7.97;;
15633;SDS011;14654;48.898;8.308;2023-07-08T02:20:26;7.93;;;7.13;;
15633;SDS011;14654;48.898;8.308;2023-07-08T02:22:51;9.03;;;7.87;;
15633;SDS011;14654;48.898;8.308;2023-07-08T02:25:16;8.60;;;7.67;;
15633;SDS011;14654;48.898;8.308;2023-07-08T02:27:42;8.70;;;6.93;;
15633;SDS011;14654;48.898;8.308;2023-07-08T02:30:08;8.00;;;7.20;;
15633;SDS011;14654;48.898;8.308;2023-07-08T02:32:34;8.00;;;7.30;;
15633;SDS011;14654;48.898;8.308;2023-07-08T02:35:01;8.87;;;7.97;;
15633;SDS011;14654;48.898;8.308;2023-07-08T02:37:28;7.83;;;7.03;;
15633;SDS011;14654;48.898;8.308;2023-07-08T02:39:54;9.70;;;6.83;;
15633;SDS011;14654;48.898;8.308;2023-07-08T02:42:19;10.20;;;7.50;;
15633;SDS011;14654;48.898;8.308;2023-07-08T02:44:44;11.63;;;8.37;;
15633;SDS011;14654;48.898;8.308;2023-07-08T02:47:09;9.37;;;7.33;;
15633;SDS011;14654;48.898;8.308;2023-07-08T02:49:35;9.03;;;7.77;;
15633;SDS011;14654;48.898;8.308;2023-07-08T02:52:00;7.93;;;7.17;;
15633;SDS011;14654;48.898;8.308;2023-07-08T02:54:25;8.20;;;7.40;;
15633;SDS011;14654;48.898;8.308;2023-07-08T02:56:51;9.20;;;7.30;;
15633;SDS011;14654;48.898;8.308;2023-07-08T02:59:16;7.53;;;6.73;;
15633;SDS011;14654;48.898;8.308;2023-07-08T03:01:41;7.10;;;6.50;;
15633;SDS011;14654;48.898;8.308;2023-07-08T03:04:07;6.73;;;6.13;;
15633;SDS011;14654;48.898;8.308;2023-07-08T03:06:38;7.23;;;6.53;;
15633;SDS011;14654;48.898;8.308;2023-07-08T03:09:08;7.80;;;7.10;;
15633;SDS011;14654;48.898;8.308;2023-07-08T03:11:34;7.53;;;6.80;;
15633;SDS011;14654;48.898;8.308;2023-07-08T03:14:00;7.83;;;7.03;;
15633;SDS011;14654;48.898;8.308;2023-07-08T03:16:25;7.20;;;6.50;;
15633;SDS011;14654;48.898;8.308;2023-07-08T03:18:50;9.33;;;7.63;;
15633;SDS011;14654;48.898;8.308;2023-07-08T03:21:16;10.03;;;7.43;;
15633;SDS011;14654;48.898;8.308;2023-07-08T03:23:43;7.77;;;7.07;;
15633;SDS011;14654;48.898;8.308;2023-07-08T03:26:15;9.37;;;8.00;;
15633;SDS011;14654;48.898;8.308;2023-07-08T03:28:44;8.37;;;7.57;;
15633;SDS011;14654;48.898;8.308;2023-07-08T03:31:09;8.10;;;7.27;;
15633;SDS011;14654;48.898;8.308;2023-07-08T03:33:35;13.57;;;8.60;;
15633;SDS011;14654;48.898;8.308;2023-07-08T03:36:01;9.20;;;8.23;;
15633;SDS011;14654;48.898;8.308;2023-07-08T03:38:28;12.50;;;8.07;;
15633;SDS011;14654;48.898;8.308;2023-07-08T03:40:53;7.90;;;7.00;;
15633;SDS011;14654;48.898;8.308;2023-07-08T03:43:18;9.53;;;7.03;;
15633;SDS011;14654;48.898;8.308;2023-07-08T03:45:44;10.80;;;7.93;;
15633;SDS011;14654;48.898;8.308;2023-07-08T03:48:10;8.40;;;7.50;;
15633;SDS011;14654;48.898;8.308;2023-07-08T03:50:36;9.73;;;7.50;;
15633;SDS011;14654;48.898;8.308;2023-07-08T03:53:02;10.33;;;7.30;;
15633;SDS011;14654;48.898;8.308;2023-07-08T03:55:28;10.43;;;7.97;;
15633;SDS011;14654;48.898;8.308;2023-07-08T03:57:53;8.60;;;7.20;;
15633;SDS011;14654;48.898;8.308;2023-07-08T04:00:19;8.70;;;7.13;;
15633;SDS011;14654;48.898;8.308;2023-07-08T04:02:45;8.27;;;7.27;;
15633;SDS011;14654;48.898;8.308;2023-07-08T04:05:14;7.13;;;6.43;;
15633;SDS011;14654;48.898;8.308;2023-07-08T04:07:41;8.00;;;7.00;;
15633;SDS011;14654;48.898;8.308;2023-07-08T04:10:07;7.43;;;6.53;;
15633;SDS011;14654;48.898;8.308;2023-07-08T04:12:34;8.00;;;7.20;;
15633;SDS011;14654;48.898;8.308;2023-07-08T04:14:59;7.77;;;6.97;;
15633;SDS011;14654;48.898;8.308;2023-07-08T04:17:24;8.53;;;6.77;;
15633;SDS011;14654;48.898;8.308;2023-07-08T04:19:50;9.20;;;7.47;;
15633;SDS011;14654;48.898;8.308;2023-07-08T04:22:15;8.23;;;7.40;;
15633;SDS011;14654;48.898;8.308;2023-07-08T04:24:41;9.03;;;7.03;;
15633;SDS011;14654;48.898;8.308;2023-07-08T04:27:08;7.13;;;6.43;;
15633;SDS011;14654;48.898;8.308;2023-07-08T04:29:39;7.63;;;6.93;;
15633;SDS011;14654;48.898;8.308;2023-07-08T04:32:05;7.53;;;6.83;;
15633;SDS011;14654;48.898;8.308;2023-07-08T04:34:31;9.17;;;7.20;;
15633;SDS011;14654;48.898;8.308;2023-07-08T04:36:56;8.27;;;7.47;;
15633;SDS011;14654;48.898;8.308;2023-07-08T04:39:22;8.27;;;7.10;;
15633;SDS011;14654;48.898;8.308;2023-07-08T04:41:47;8.90;;;7.80;;
15633;SDS011;14654;48.898;8.308;2023-07-08T04:44:13;7.90;;;7.10;;
15633;SDS011;14654;48.898;8.308;2023-07-08T04:49:06;7.60;;;6.90;;
15633;SDS011;14654;48.898;8.308;2023-07-08T04:51:34;8.27;;;6.87;;
15633;SDS011;14654;48.898;8.308;2023-07-08T04:54:00;7.77;;;7.03;;
15633;SDS011;14654;48.898;8.308;2023-07-08T04:56:27;7.80;;;7.00;;
15633;SDS011;14654;48.898;8.308;2023-07-08T04:59:01;9.03;;;7.83;;
15633;SDS011;14654;48.898;8.308;2023-07-08T05:01:26;9.83;;;8.60;;
15633;SDS011;14654;48.898;8.308;2023-07-08T05:03:52;9.77;;;8.47;;
15633;SDS011;14654;48.898;8.308;2023-07-08T05:06:17;8.57;;;7.77;;
15633;SDS011;14654;48.898;8.308;2023-07-08T05:08:42;8.53;;;7.73;;
15633;SDS011;14654;48.898;8.308;2023-07-08T05:11:08;8.77;;;7.83;;
15633;SDS011;14654;48.898;8.308;2023-07-08T05:13:33;8.87;;;7.97;;
15633;SDS011;14654;48.898;8.308;2023-07-08T05:15:58;8.43;;;7.53;;
15633;SDS011;14654;48.898;8.308;2023-07-08T05:18:24;8.97;;;8.07;;
15633;SDS011;14654;48.898;8.308;2023-07-08T05:20:52;10.63;;;8.40;;
15633;SDS011;14654;48.898;8.308;2023-07-08T05:23:19;9.40;;;8.43;;
15633;SDS011;14654;48.898;8.308;2023-07-08T05:25:45;8.50;;;7.70;;
15633;SDS011;14654;48.898;8.308;2023-07-08T05:28:11;8.47;;;7.67;;
15633;SDS011;14654;48.898;8.308;2023-07-08T05:30:36;9.43;;;7.93;;
15633;SDS011;14654;48.898;8.308;2023-07-08T05:33:05;9.67;;;8.67;;
15633;SDS011;14654;48.898;8.308;2023-07-08T05:35:30;9.93;;;7.73;;
15633;SDS011;14654;48.898;8.308;2023-07-08T05:37:56;7.73;;;7.00;;
15633;SDS011;14654;48.898;8.308;2023-07-08T05:40:21;8.73;;;7.90;;
15633;SDS011;14654;48.898;8.308;2023-07-08T05:42:46;8.80;;;7.90;;
15633;SDS011;14654;48.898;8.308;2023-07-08T05:45:12;10.20;;;7.93;;
15633;SDS011;14654;48.898;8.308;2023-07-08T05:47:37;9.05;;;7.63;;
15633;SDS011;14654;48.898;8.308;2023-07-08T05:50:03;8.33;;;7.53;;
15633;SDS011;14654;48.898;8.308;2023-07-08T05:52:29;8.17;;;7.37;;
15633;SDS011;14654;48.898;8.308;2023-07-08T05:54:54;8.27;;;7.37;;
15633;SDS011;14654;48.898;8.308;2023-07-08T05:57:20;10.87;;;8.13;;
15633;SDS011;14654;48.898;8.308;2023-07-08T05:59:45;7.77;;;6.97;;
15633;SDS011;14654;48.898;8.308;2023-07-08T06:02:11;9.70;;;7.47;;
15633;SDS011;14654;48.898;8.308;2023-07-08T06:04:37;7.70;;;6.90;;
15633;SDS011;14654;48.898;8.308;2023-07-08T06:07:03;8.23;;;7.13;;
15633;SDS011;14654;48.898;8.308;2023-07-08T06:09:28;8.97;;;7.27;;
15633;SDS011;14654;48.898;8.308;2023-07-08T06:11:54;8.07;;;7.32;;
15633;SDS011;14654;48.898;8.308;2023-07-08T06:14:19;7.97;;;7.28;;
15633;SDS011;14654;48.898;8.308;2023-07-08T06:16:45;7.72;;;7.00;;
15633;SDS011;14654;48.898;8.308;2023-07-08T06:19:10;7.97;;;6.93;;
15633;SDS011;14654;48.898;8.308;2023-07-08T06:21:35;6.93;;;6.28;;
15633;SDS011;14654;48.898;8.308;2023-07-08T06:24:01;7.70;;;5.75;;
15633;SDS011;14654;48.898;8.308;2023-07-08T06:26:26;6.30;;;5.70;;
15633;SDS011;14654;48.898;8.308;2023-07-08T06:28:51;7.93;;;5.32;;
15633;SDS011;14654;48.898;8.308;2023-07-08T06:31:17;8.05;;;6.05;;
15633;SDS011;14654;48.898;8.308;2023-07-08T06:33:42;6.53;;;5.80;;
15633;SDS011;14654;48.898;8.308;2023-07-08T06:36:08;5.80;;;5.30;;
15633;SDS011;14654;48.898;8.308;2023-07-08T06:38:33;7.43;;;5.95;;
15633;SDS011;14654;48.898;8.308;2023-07-08T06:40:59;6.57;;;5.95;;
15633;SDS011;14654;48.898;8.308;2023-07-08T06:43:24;6.10;;;5.50;;
15633;SDS011;14654;48.898;8.308;2023-07-08T06:45:50;6.60;;;5.90;;
15633;SDS011;14654;48.898;8.308;2023-07-08T06:48:15;5.88;;;4.72;;
15633;SDS011;14654;48.898;8.308;2023-07-08T06:50:47;5.60;;;4.75;;
15633;SDS011;14654;48.898;8.308;2023-07-08T06:53:12;4.60;;;4.15;;
15633;SDS011;14654;48.898;8.308;2023-07-08T06:55:38;5.57;;;3.83;;
15633;SDS011;14654;48.898;8.308;2023-07-08T06:58:04;4.47;;;3.92;;
15633;SDS011;14654;48.898;8.308;2023-07-08T07:00:29;9.75;;;4.30;;
15633;SDS011;14654;48.898;8.308;2023-07-08T07:02:55;5.38;;;3.10;;
15633;SDS011;14654;48.898;8.308;2023-07-08T07:05:20;4.40;;;4.00;;
15633;SDS011;14654;48.898;8.308;2023-07-08T07:07:45;4.63;;;3.58;;
15633;SDS011;14654;48.898;8.308;2023-07-08T07:10:11;3.67;;;3.30;;
15633;SDS011;14654;48.898;8.308;2023-07-08T07:12:36;4.22;;;3.63;;
15633;SDS011;14654;48.898;8.308;2023-07-08T07:15:02;5.03;;;3.15;;
15633;SDS011;14654;48.898;8.308;2023-07-08T07:17:28;3.17;;;2.88;;
15633;SDS011;14654;48.898;8.308;2023-07-08T07:19:53;4.85;;;3.20;;
15633;SDS011;14654;48.898;8.308;2023-07-08T07:22:19;5.10;;;3.15;;
15633;SDS011;14654;48.898;8.308;2023-07-08T07:24:45;6.18;;;3.28;;
15633;SDS011;14654;48.898;8.308;2023-07-08T07:27:10;4.13;;;3.33;;
15633;SDS011;14654;48.898;8.308;2023-07-08T07:29:43;3.78;;;3.38;;
15633;SDS011;14654;48.898;8.308;2023-07-08T07:32:11;4.93;;;2.95;;
15633;SDS011;14654;48.898;8.308;2023-07-08T07:34:37;3.33;;;3.03;;
15633;SDS011;14654;48.898;8.308;2023-07-08T07:37:03;3.42;;;2.83;;
15633;SDS011;14654;48.898;8.308;2023-07-08T07:39:29;5.53;;;3.10;;
15633;SDS011;14654;48.898;8.308;2023-07-08T07:41:55;3.90;;;3.10;;
15633;SDS011;14654;48.898;8.308;2023-07-08T07:44:20;5.80;;;2.80;;
15633;SDS011;14654;48.898;8.308;2023-07-08T07:46:45;3.03;;;2.70;;
15633;SDS011;14654;48.898;8.308;2023-07-08T07:49:12;4.70;;;2.80;;
15633;SDS011;14654;48.898;8.308;2023-07-08T07:51:37;5.38;;;2.50;;
15633;SDS011;14654;48.898;8.308;2023-07-08T07:54:03;3.97;;;2.80;;
15633;SDS011;14654;48.898;8.308;2023-07-08T07:56:28;2.92;;;2.63;;
15633;SDS011;14654;48.898;8.308;2023-07-08T07:58:53;3.42;;;3.10;;
15633;SDS011;14654;48.898;8.308;2023-07-08T08:01:19;4.32;;;2.30;;
15633;SDS011;14654;48.898;8.308;2023-07-08T08:03:45;4.03;;;2.58;;
15633;SDS011;14654;48.898;8.308;2023-07-08T08:06:10;3.90;;;2.55;;
15633;SDS011;14654;48.898;8.308;2023-07-08T08:08:35;4.35;;;2.47;;
15633;SDS011;14654;48.898;8.308;2023-07-08T08:11:01;3.38;;;2.47;;
15633;SDS011;14654;48.898;8.308;2023-07-08T08:13:26;2.80;;;2.53;;
15633;SDS011;14654;48.898;8.308;2023-07-08T08:15:58;3.03;;;2.47;;
15633;SDS011;14654;48.898;8.308;2023-07-08T08:18:24;4.53;;;2.55;;
15633;SDS011;14654;48.898;8.308;2023-07-08T08:20:50;4.32;;;2.35;;
15633;SDS011;14654;48.898;8.308;2023-07-08T08:23:16;3.03;;;2.30;;
15633;SDS011;14654;48.898;8.308;2023-07-08T08:25:42;3.38;;;2.03;;
15633;SDS011;14654;48.898;8.308;2023-07-08T08:28:07;3.35;;;2.53;;
15633;SDS011;14654;48.898;8.308;2023-07-08T08:30:32;2.72;;;2.10;;
15633;SDS011;14654;48.898;8.308;2023-07-08T08:32:58;2.20;;;2.00;;
15633;SDS011;14654;48.898;8.308;2023-07-08T08:35:23;3.90;;;2.55;;
15633;SDS011;14654;48.898;8.308;2023-07-08T08:37:49;2.53;;;2.03;;
15633;SDS011;14654;48.898;8.308;2023-07-08T08:40:15;2.30;;;2.10;;
15633;SDS011;14654;48.898;8.308;2023-07-08T08:45:23;2.65;;;2.38;;
15633;SDS011;14654;48.898;8.308;2023-07-08T08:47:54;4.03;;;2.67;;
15633;SDS011;14654;48.898;8.308;2023-07-08T08:50:45;2.72;;;1.95;;
15633;SDS011;14654;48.898;8.308;2023-07-08T08:53:12;3.58;;;2.33;;
15633;SDS011;14654;48.898;8.308;2023-07-08T08:55:41;2.28;;;1.95;;
15633;SDS011;14654;48.898;8.308;2023-07-08T08:58:21;4.03;;;2.20;;
15633;SDS011;14654;48.898;8.308;2023-07-08T09:03:51;2.92;;;2.15;;
15633;SDS011;14654;48.898;8.308;2023-07-08T09:06:24;4.03;;;2.33;;
15633;SDS011;14654;48.898;8.308;2023-07-08T09:08:54;4.35;;;2.15;;
15633;SDS011;14654;48.898;8.308;2023-07-08T09:14:16;2.08;;;1.65;;
15633;SDS011;14654;48.898;8.308;2023-07-08T09:21:55;3.70;;;2.00;;
15633;SDS011;14654;48.898;8.308;2023-07-08T09:27:05;2.50;;;1.90;;
15633;SDS011;14654;48.898;8.308;2023-07-08T09:29:31;3.17;;;1.90;;
15633;SDS011;14654;48.898;8.308;2023-07-08T09:31:57;2.45;;;1.80;;
15633;SDS011;14654;48.898;8.308;2023-07-08T09:34:23;3.85;;;1.92;;
15633;SDS011;14654;48.898;8.308;2023-07-08T09:37:03;2.97;;;2.00;;
15633;SDS011;14654;48.898;8.308;2023-07-08T09:39:53;2.37;;;1.57;;
15633;SDS011;14654;48.898;8.308;2023-07-08T09:42:21;1.80;;;1.60;;
15633;SDS011;14654;48.898;8.308;2023-07-08T09:44:53;2.72;;;1.75;;
15633;SDS011;14654;48.898;8.308;2023-07-08T09:47:25;3.25;;;1.70;;
15633;SDS011;14654;48.898;8.308;2023-07-08T09:49:56;1.85;;;1.42;;
15633;SDS011;14654;48.898;8.308;2023-07-08T09:52:23;2.65;;;1.98;;
15633;SDS011;14654;48.898;8.308;2023-07-08T09:54:49;2.20;;;1.63;;
15633;SDS011;14654;48.898;8.308;2023-07-08T09:57:21;3.42;;;1.50;;
15633;SDS011;14654;48.898;8.308;2023-07-08T09:59:53;3.42;;;1.60;;
15633;SDS011;14654;48.898;8.308;2023-07-08T10:02:28;1.98;;;1.67;;
15633;SDS011;14654;48.898;8.308;2023-07-08T10:04:57;2.80;;;1.80;;
15633;SDS011;14654;48.898;8.308;2023-07-08T10:07:26;2.05;;;1.80;;
15633;SDS011;14654;48.898;8.308;2023-07-08T10:09:54;4.13;;;1.90;;
15633;SDS011;14654;48.898;8.308;2023-07-08T10:12:24;2.10;;;1.90;;
15633;SDS011;14654;48.898;8.308;2023-07-08T10:14:51;4.20;;;1.77;;
15633;SDS011;14654;48.898;8.308;2023-07-08T10:17:21;2.70;;;2.10;;
15633;SDS011;14654;48.898;8.308;2023-07-08T10:19:46;2.38;;;1.75;;
15633;SDS011;14654;48.898;8.308;2023-07-08T10:28:42;4.68;;;2.22;;
15633;SDS011;14654;48.898;8.308;2023-07-08T10:30:48;2.83;;;1.90;;
15633;SDS011;14654;48.898;8.308;2023-07-08T10:38:53;71.15;;;10.52;;
15633;SDS011;14654;48.898;8.308;2023-07-08T10:44:26;13.77;;;3.13;;
15633;SDS011;14654;48.898;8.308;2023-07-08T10:47:10;3.72;;;2.30;;
15633;SDS011;14654;48.898;8.308;2023-07-08T10:55:14;3.42;;;2.50;;
15633;SDS011;14654;48.898;8.308;2023-07-08T11:00:47;3.97;;;2.33;;
15633;SDS011;14654;48.898;8.308;2023-07-08T11:06:29;3.20;;;2.40;;
15633;SDS011;14654;48.898;8.308;2023-07-08T11:09:01;2.83;;;2.20;;
15633;SDS011;14654;48.898;8.308;2023-07-08T11:11:32;3.97;;;2.30;;
15633;SDS011;14654;48.898;8.308;2023-07-08T11:19:38;2.78;;;1.90;;
15633;SDS011;14654;48.898;8.308;2023-07-08T11:22:09;2.22;;;2.03;;
15633;SDS011;14654;48.898;8.308;2023-07-08T11:27:11;2.50;;;2.10;;
15633;SDS011;14654;48.898;8.308;2023-07-08T11:29:48;3.38;;;2.53;;
15633;SDS011;14654;48.898;8.308;2023-07-08T11:32:18;2.70;;;2.00;;
15633;SDS011;14654;48.898;8.308;2023-07-08T11:34:46;4.15;;;2.40;;
15633;SDS011;14654;48.898;8.308;2023-07-08T11:37:14;2.20;;;2.00;;
15633;SDS011;14654;48.898;8.308;2023-07-08T11:39:42;2.78;;;2.20;;
15633;SDS011;14654;48.898;8.308;2023-07-08T11:45:01;2.40;;;2.20;;
15633;SDS011;14654;48.898;8.308;2023-07-08T11:47:40;2.58;;;2.38;;
15633;SDS011;14654;48.898;8.308;2023-07-08T11:52:50;3.35;;;2.28;;
15633;SDS011;14654;48.898;8.308;2023-07-08T11:55:34;3.95;;;2.20;;
15633;SDS011;14654;48.898;8.308;2023-07-08T11:58:00;3.65;;;2.65;;
15633;SDS011;14654;48.898;8.308;2023-07-08T12:00:26;2.65;;;2.45;;
15633;SDS011;14654;48.898;8.308;2023-07-08T12:02:58;3.28;;;2.55;;
15633;SDS011;14654;48.898;8.308;2023-07-08T12:05:32;3.85;;;2.85;;
15633;SDS011;14654;48.898;8.308;2023-07-08T12:08:02;3.22;;;2.55;;
15633;SDS011;14654;48.898;8.308;2023-07-08T12:10:40;2.65;;;2.45;;
15633;SDS011;14654;48.898;8.308;2023-07-08T12:13:15;4.57;;;3.92;;
15633;SDS011;14654;48.898;8.308;2023-07-08T12:15:42;3.75;;;3.38;;
15633;SDS011;14654;48.898;8.308;2023-07-08T12:20:34;3.33;;;2.97;;
15633;SDS011;14654;48.898;8.308;2023-07-08T12:23:03;3.85;;;2.80;;
15633;SDS011;14654;48.898;8.308;2023-07-08T12:25:35;6.15;;;3.15;;
15633;SDS011;14654;48.898;8.308;2023-07-08T12:28:01;4.50;;;2.80;;
15633;SDS011;14654;48.898;8.308;2023-07-08T12:30:28;3.03;;;2.72;;
15633;SDS011;14654;48.898;8.308;2023-07-08T12:32:55;3.72;;;2.58;;
15633;SDS011;14654;48.898;8.308;2023-07-08T12:37:55;4.18;;;3.00;;
15633;SDS011;14654;48.898;8.308;2023-07-08T12:40:22;5.72;;;3.00;;
15633;SDS011;14654;48.898;8.308;2023-07-08T12:42:48;4.38;;;3.08;;
15633;SDS011;14654;48.898;8.308;2023-07-08T12:45:15;3.60;;;3.00;;
15633;SDS011;14654;48.898;8.308;2023-07-08T12:47:43;4.47;;;2.95;;
15633;SDS011;14654;48.898;8.308;2023-07-08T12:50:10;4.20;;;3.20;;
15633;SDS011;14654;48.898;8.308;2023-07-08T12:52:37;3.33;;;3.03;;
15633;SDS011;14654;48.898;8.308;2023-07-08T12:55:02;3.38;;;3.08;;
15633;SDS011;14654;48.898;8.308;2023-07-08T12:57:27;3.20;;;2.63;;
15633;SDS011;14654;48.898;8.308;2023-07-08T12:59:53;4.20;;;2.72;;
15633;SDS011;14654;48.898;8.308;2023-07-08T13:02:19;3.35;;;3.05;;
15633;SDS011;14654;48.898;8.308;2023-07-08T13:04:51;3.40;;;2.70;;
15633;SDS011;14654;48.898;8.308;2023-07-08T13:09:54;3.03;;;2.72;;
15633;SDS011;14654;48.898;8.308;2023-07-08T13:12:19;4.47;;;2.72;;
15633;SDS011;14654;48.898;8.308;2023-07-08T13:14:49;3.80;;;2.70;;
15633;SDS011;14654;48.898;8.308;2023-07-08T13:17:17;2.92;;;2.72;;
15633;SDS011;14654;48.898;8.308;2023-07-08T13:19:43;4.55;;;3.08;;
15633;SDS011;14654;48.898;8.308;2023-07-08T13:22:16;3.38;;;3.08;;
15633;SDS011;14654;48.898;8.308;2023-07-08T13:24:44;4.65;;;3.03;;
15633;SDS011;14654;48.898;8.308;2023-07-08T13:27:13;3.38;;;3.00;;
15633;SDS011;14654;48.898;8.308;2023-07-08T13:29:46;4.90;;;3.90;;
15633;SDS011;14654;48.898;8.308;2023-07-08T13:32:11;4.00;;;3.40;;
15633;SDS011;14654;48.898;8.308;2023-07-08T13:34:37;5.72;;;4.07;;
15633;SDS011;14654;48.898;8.308;2023-07-08T13:37:07;5.35;;;3.42;;
15633;SDS011;14654;48.898;8.308;2023-07-08T13:39:37;4.90;;;3.45;;
15633;SDS011;14654;48.898;8.308;2023-07-08T13:42:03;3.08;;;2.65;;
15633;SDS011;14654;48.898;8.308;2023-07-08T13:44:31;3.40;;;3.03;;
15633;SDS011;14654;48.898;8.308;2023-07-08T13:46:57;4.78;;;3.22;;
15633;SDS011;14654;48.898;8.308;2023-07-08T13:49:25;5.43;;;3.42;;
15633;SDS011;14654;48.898;8.308;2023-07-08T13:52:08;4.47;;;2.97;;
15633;SDS011;14654;48.898;8.308;2023-07-08T15:02:20;2.90;;;2.70;;
15633;SDS011;14654;48.898;8.308;2023-07-08T15:04:46;3.35;;;3.05;;
15633;SDS011;14654;48.898;8.308;2023-07-08T15:07:12;3.58;;;3.22;;
15633;SDS011;14654;48.898;8.308;2023-07-08T15:09:37;3.75;;;3.03;;
15633;SDS011;14654;48.898;8.308;2023-07-08T15:12:03;3.30;;;2.80;;
15633;SDS011;14654;48.898;8.308;2023-07-08T15:14:29;5.28;;;3.20;;
15633;SDS011;14654;48.898;8.308;2023-07-08T15:16:54;3.47;;;3.10;;
15633;SDS011;14654;48.898;8.308;2023-07-08T15:19:20;3.83;;;3.47;;
15633;SDS011;14654;48.898;8.308;2023-07-08T15:21:46;3.88;;;3.45;;
15633;SDS011;14654;48.898;8.308;2023-07-08T15:24:12;5.65;;;3.65;;
15633;SDS011;14654;48.898;8.308;2023-07-08T15:26:42;3.53;;;3.17;;
15633;SDS011;14654;48.898;8.308;2023-07-08T15:29:12;3.83;;;3.22;;
15633;SDS011;14654;48.898;8.308;2023-07-08T15:31:41;4.82;;;3.25;;
15633;SDS011;14654;48.898;8.308;2023-07-08T15:34:13;5.35;;;3.10;;
15633;SDS011;14654;48.898;8.308;2023-07-08T15:36:40;4.50;;;3.53;;
15633;SDS011;14654;48.898;8.308;2023-07-08T15:39:05;3.00;;;2.70;;
15633;SDS011;14654;48.898;8.308;2023-07-08T15:41:30;3.80;;;3.00;;
15633;SDS011;14654;48.898;8.308;2023-07-08T15:43:57;3.60;;;3.30;;
15633;SDS011;14654;48.898;8.308;2023-07-08T15:46:34;4.95;;;3.53;;
15633;SDS011;14654;48.898;8.308;2023-07-08T15:49:01;4.07;;;3.00;;
15633;SDS011;14654;48.898;8.308;2023-07-08T15:51:35;3.90;;;3.42;;
15633;SDS011;14654;48.898;8.308;2023-07-08T15:54:01;3.20;;;2.53;;
15633;SDS011;14654;48.898;8.308;2023-07-08T15:56:26;4.18;;;3.25;;
15633;SDS011;14654;48.898;8.308;2023-07-08T15:58:51;2.75;;;2.55;;
15633;SDS011;14654;48.898;8.308;2023-07-08T16:01:18;5.70;;;3.70;;
15633;SDS011;14654;48.898;8.308;2023-07-08T16:03:46;3.33;;;3.03;;
15633;SDS011;14654;48.898;8.308;2023-07-08T16:06:12;4.95;;;3.17;;
15633;SDS011;14654;48.898;8.308;2023-07-08T16:08:37;4.32;;;3.00;;
15633;SDS011;14654;48.898;8.308;2023-07-08T16:11:04;5.32;;;3.30;;
15633;SDS011;14654;48.898;8.308;2023-07-08T16:13:38;5.03;;;2.88;;
15633;SDS011;14654;48.898;8.308;2023-07-08T16:16:05;3.90;;;2.80;;
15633;SDS011;14654;48.898;8.308;2023-07-08T16:18:31;3.83;;;2.83;;
15633;SDS011;14654;48.898;8.308;2023-07-08T16:20:56;3.03;;;2.78;;
15633;SDS011;14654;48.898;8.308;2023-07-08T16:23:22;3.80;;;2.95;;
15633;SDS011;14654;48.898;8.308;2023-07-08T16:25:48;5.07;;;2.97;;
15633;SDS011;14654;48.898;8.308;2023-07-08T16:28:16;4.05;;;2.65;;
15633;SDS011;14654;48.898;8.308;2023-07-08T16:30:49;6.40;;;3.30;;
15633;SDS011;14654;48.898;8.308;2023-07-08T16:33:15;5.95;;;4.50;;
15633;SDS011;14654;48.898;8.308;2023-07-08T16:35:40;3.92;;;3.40;;
15633;SDS011;14654;48.898;8.308;2023-07-08T16:38:06;3.90;;;3.25;;
15633;SDS011;14654;48.898;8.308;2023-07-08T16:40:32;3.65;;;2.67;;
15633;SDS011;14654;48.898;8.308;2023-07-08T16:42:58;4.25;;;3.03;;
15633;SDS011;14654;48.898;8.308;2023-07-08T16:45:23;3.83;;;3.30;;
15633;SDS011;14654;48.898;8.308;2023-07-08T16:47:51;5.68;;;3.25;;
15633;SDS011;14654;48.898;8.308;2023-07-08T16:50:18;4.05;;;3.08;;
15633;SDS011;14654;48.898;8.308;2023-07-08T16:52:44;4.75;;;3.47;;
15633;SDS011;14654;48.898;8.308;2023-07-08T16:55:14;4.00;;;3.03;;
15633;SDS011;14654;48.898;8.308;2023-07-08T16:57:44;4.97;;;3.50;;
15633;SDS011;14654;48.898;8.308;2023-07-08T17:00:11;5.57;;;3.30;;
15633;SDS011;14654;48.898;8.308;2023-07-08T17:02:38;4.50;;;3.20;;
15633;SDS011;14654;48.898;8.308;2023-07-08T17:05:21;4.15;;;2.80;;
15633;SDS011;14654;48.898;8.308;2023-07-08T17:07:48;4.15;;;3.53;;
15633;SDS011;14654;48.898;8.308;2023-07-08T17:10:15;3.28;;;3.00;;